sensor_id;sensor_type;location;lat;lon;timestamp;temperature;humidity
71436;SHT31;59251;51.326;12.370;2023-04-29T00:00:31;11.26;99.81
71436;SHT31;59251;51.326;12.370;2023-04-29T00:02:56;11.27;99.95
71436;SHT31;59251;51.326;12.370;2023-04-29T00:05:22;11.26;99.99
71436;SHT31;59251;51.326;12.370;2023-04-29T00:07:47;11.62;99.48
71436;SHT31;59251;51.326;12.370;2023-04-29T00:10:12;11.61;99.82
71436;SHT31;59251;51.326;12.370;2023-04-29T00:12:39;11.51;99.99
71436;SHT31;59251;51.326;12.370;2023-04-29T00:15:05;11.38;99.99
71436;SHT31;59251;51.326;12.370;2023-04-29T00:17:31;11.38;99.99
71436;SHT31;59251;51.326;12.370;2023-04-29T00:19:56;11.39;99.99
71436;SHT31;59251;51.326;12.370;2023-04-29T00:22:22;11.31;99.99
71436;SHT31;59251;51.326;12.370;2023-04-29T00:24:47;11.37;99.99
71436;SHT31;59251;51.326;12.370;2023-04-29T00:27:12;11.39;99.99
71436;SHT31;59251;51.326;12.370;2023-04-29T00:29:38;11.41;99.99
71436;SHT31;59251;51.326;12.370;2023-04-29T00:32:04;11.30;99.99
71436;SHT31;59251;51.326;12.370;2023-04-29T00:34:29;11.26;99.99
71436;SHT31;59251;51.326;12.370;2023-04-29T00:36:54;11.31;99.99
71436;SHT31;59251;51.326;12.370;2023-04-29T00:39:20;11.28;99.99
71436;SHT31;59251;51.326;12.370;2023-04-29T00:41:45;11.28;99.99
71436;SHT31;59251;51.326;12.370;2023-04-29T00:44:10;11.31;99.99
71436;SHT31;59251;51.326;12.370;2023-04-29T00:46:36;11.34;99.99
71436;SHT31;59251;51.326;12.370;2023-04-29T00:49:02;11.31;99.99
71436;SHT31;59251;51.326;12.370;2023-04-29T00:51:28;11.28;99.99
71436;SHT31;59251;51.326;12.370;2023-04-29T00:53:53;11.27;99.99
71436;SHT31;59251;51.326;12.370;2023-04-29T00:56:19;11.30;99.99
71436;SHT31;59251;51.326;12.370;2023-04-29T00:58:49;11.35;99.99
71436;SHT31;59251;51.326;12.370;2023-04-29T01:01:16;11.32;99.99
71436;SHT31;59251;51.326;12.370;2023-04-29T01:03:41;11.32;99.99
71436;SHT31;59251;51.326;12.370;2023-04-29T01:06:19;11.35;99.99
71436;SHT31;59251;51.326;12.370;2023-04-29T01:14:29;11.47;99.99
71436;SHT31;59251;51.326;12.370;2023-04-29T01:16:59;11.47;99.99
71436;SHT31;59251;51.326;12.370;2023-04-29T01:19:47;11.41;99.99
71436;SHT31;59251;51.326;12.370;2023-04-29T01:22:14;11.47;99.99
71436;SHT31;59251;51.326;12.370;2023-04-29T01:24:41;11.42;99.99
71436;SHT31;59251;51.326;12.370;2023-04-29T01:27:20;11.35;99.99
71436;SHT31;59251;51.326;12.370;2023-04-29T01:32:31;11.31;99.99
71436;SHT31;59251;51.326;12.370;2023-04-29T01:40:37;11.37;99.99
71436;SHT31;59251;51.326;12.370;2023-04-29T01:43:07;11.28;99.99
71436;SHT31;59251;51.326;12.370;2023-04-29T01:45:37;11.27;99.99
71436;SHT31;59251;51.326;12.370;2023-04-29T01:48:06;11.23;99.99
71436;SHT31;59251;51.326;12.370;2023-04-29T01:50:32;11.26;99.99
71436;SHT31;59251;51.326;12.370;2023-04-29T01:52:57;11.30;99.99
71436;SHT31;59251;51.326;12.370;2023-04-29T01:55:22;11.30;99.99
71436;SHT31;59251;51.326;12.370;2023-04-29T01:57:48;11.20;99.99
71436;SHT31;59251;51.326;12.370;2023-04-29T02:00:13;11.16;99.99
71436;SHT31;59251;51.326;12.370;2023-04-29T02:02:39;11.16;99.99
71436;SHT31;59251;51.326;12.370;2023-04-29T02:05:05;11.16;99.99
71436;SHT31;59251;51.326;12.370;2023-04-29T02:07:30;11.17;99.99
71436;SHT31;59251;51.326;12.370;2023-04-29T02:09:55;11.17;99.99
71436;SHT31;59251;51.326;12.370;2023-04-29T02:12:21;11.17;99.99
71436;SHT31;59251;51.326;12.370;2023-04-29T02:14:46;11.20;99.99
71436;SHT31;59251;51.326;12.370;2023-04-29T02:17:14;11.20;99.99
71436;SHT31;59251;51.326;12.370;2023-04-29T02:19:39;11.21;99.99
71436;SHT31;59251;51.326;12.370;2023-04-29T02:22:05;11.34;99.99
71436;SHT31;59251;51.326;12.370;2023-04-29T02:24:30;11.21;99.99
71436;SHT31;59251;51.326;12.370;2023-04-29T02:26:56;11.21;99.99
71436;SHT31;59251;51.326;12.370;2023-04-29T02:29:21;11.26;99.99
71436;SHT31;59251;51.326;12.370;2023-04-29T02:31:46;11.26;99.99
71436;SHT31;59251;51.326;12.370;2023-04-29T02:34:12;11.23;99.99
71436;SHT31;59251;51.326;12.370;2023-04-29T02:36:37;11.17;99.99
71436;SHT31;59251;51.326;12.370;2023-04-29T02:39:03;11.26;99.99
71436;SHT31;59251;51.326;12.370;2023-04-29T02:41:29;11.21;99.99
71436;SHT31;59251;51.326;12.370;2023-04-29T02:43:54;11.18;99.99
71436;SHT31;59251;51.326;12.370;2023-04-29T02:46:20;11.18;99.99
71436;SHT31;59251;51.326;12.370;2023-04-29T02:48:45;11.16;99.99
71436;SHT31;59251;51.326;12.370;2023-04-29T02:51:10;11.16;99.99
71436;SHT31;59251;51.326;12.370;2023-04-29T02:53:36;11.13;99.99
71436;SHT31;59251;51.326;12.370;2023-04-29T02:56:01;11.17;99.99
71436;SHT31;59251;51.326;12.370;2023-04-29T02:58:27;11.14;99.99
71436;SHT31;59251;51.326;12.370;2023-04-29T03:00:53;11.11;99.99
71436;SHT31;59251;51.326;12.370;2023-04-29T03:03:18;11.13;99.99
71436;SHT31;59251;51.326;12.370;2023-04-29T03:05:43;11.09;99.99
71436;SHT31;59251;51.326;12.370;2023-04-29T03:08:09;11.04;99.99
71436;SHT31;59251;51.326;12.370;2023-04-29T03:10:35;11.11;99.99
71436;SHT31;59251;51.326;12.370;2023-04-29T03:13:01;11.14;99.99
71436;SHT31;59251;51.326;12.370;2023-04-29T03:15:26;11.09;99.99
71436;SHT31;59251;51.326;12.370;2023-04-29T03:17:52;11.00;99.99
71436;SHT31;59251;51.326;12.370;2023-04-29T03:20:18;11.17;99.99
71436;SHT31;59251;51.326;12.370;2023-04-29T03:22:44;11.09;99.99
71436;SHT31;59251;51.326;12.370;2023-04-29T03:25:09;11.09;99.99
71436;SHT31;59251;51.326;12.370;2023-04-29T03:27:35;11.14;99.99
71436;SHT31;59251;51.326;12.370;2023-04-29T03:30:01;11.26;99.99
71436;SHT31;59251;51.326;12.370;2023-04-29T03:32:26;11.20;99.99
71436;SHT31;59251;51.326;12.370;2023-04-29T03:34:52;11.16;99.99
71436;SHT31;59251;51.326;12.370;2023-04-29T03:37:17;11.18;99.99
71436;SHT31;59251;51.326;12.370;2023-04-29T03:39:43;11.23;99.99
71436;SHT31;59251;51.326;12.370;2023-04-29T03:42:08;11.31;99.99
71436;SHT31;59251;51.326;12.370;2023-04-29T03:44:33;11.28;99.99
71436;SHT31;59251;51.326;12.370;2023-04-29T03:46:59;11.31;99.99
71436;SHT31;59251;51.326;12.370;2023-04-29T03:49:24;11.34;99.99
71436;SHT31;59251;51.326;12.370;2023-04-29T03:51:50;11.32;99.99
71436;SHT31;59251;51.326;12.370;2023-04-29T03:54:15;11.35;99.99
71436;SHT31;59251;51.326;12.370;2023-04-29T03:56:40;11.39;99.99
71436;SHT31;59251;51.326;12.370;2023-04-29T03:59:07;11.44;99.99
71436;SHT31;59251;51.326;12.370;2023-04-29T04:01:32;11.47;99.99
71436;SHT31;59251;51.326;12.370;2023-04-29T04:03:57;11.50;99.99
71436;SHT31;59251;51.326;12.370;2023-04-29T04:06:23;11.50;99.99
71436;SHT31;59251;51.326;12.370;2023-04-29T04:08:48;11.57;99.99
71436;SHT31;59251;51.326;12.370;2023-04-29T04:11:13;11.48;99.99
71436;SHT31;59251;51.326;12.370;2023-04-29T04:13:42;11.54;99.99
71436;SHT31;59251;51.326;12.370;2023-04-29T04:16:10;11.61;99.99
71436;SHT31;59251;51.326;12.370;2023-04-29T04:18:39;11.69;99.99
71436;SHT31;59251;51.326;12.370;2023-04-29T04:21:11;11.68;99.99
71436;SHT31;59251;51.326;12.370;2023-04-29T04:23:37;11.66;99.99
71436;SHT31;59251;51.326;12.370;2023-04-29T04:26:05;11.72;99.99
71436;SHT31;59251;51.326;12.370;2023-04-29T04:28:31;11.78;99.99
71436;SHT31;59251;51.326;12.370;2023-04-29T04:30:56;11.76;99.99
71436;SHT31;59251;51.326;12.370;2023-04-29T04:33:23;11.78;99.99
71436;SHT31;59251;51.326;12.370;2023-04-29T04:35:48;11.75;99.99
71436;SHT31;59251;51.326;12.370;2023-04-29T04:38:13;11.76;99.99
71436;SHT31;59251;51.326;12.370;2023-04-29T04:40:43;11.74;99.99
71436;SHT31;59251;51.326;12.370;2023-04-29T04:43:08;11.81;99.99
71436;SHT31;59251;51.326;12.370;2023-04-29T04:45:34;11.81;99.99
71436;SHT31;59251;51.326;12.370;2023-04-29T04:47:59;11.86;99.99
71436;SHT31;59251;51.326;12.370;2023-04-29T04:50:28;11.89;99.99
71436;SHT31;59251;51.326;12.370;2023-04-29T04:52:57;11.89;99.99
71436;SHT31;59251;51.326;12.370;2023-04-29T04:55:22;11.95;99.99
71436;SHT31;59251;51.326;12.370;2023-04-29T04:57:48;11.95;99.99
71436;SHT31;59251;51.326;12.370;2023-04-29T05:00:14;11.93;99.99
71436;SHT31;59251;51.326;12.370;2023-04-29T05:02:39;11.93;99.99
71436;SHT31;59251;51.326;12.370;2023-04-29T05:05:05;11.97;99.89
71436;SHT31;59251;51.326;12.370;2023-04-29T05:07:31;11.99;99.81
71436;SHT31;59251;51.326;12.370;2023-04-29T05:09:57;11.99;99.84
71436;SHT31;59251;51.326;12.370;2023-04-29T05:12:22;12.00;99.96
71436;SHT31;59251;51.326;12.370;2023-04-29T05:14:52;12.02;99.85
71436;SHT31;59251;51.326;12.370;2023-04-29T05:17:17;12.03;99.80
71436;SHT31;59251;51.326;12.370;2023-04-29T05:19:42;12.10;99.32
71436;SHT31;59251;51.326;12.370;2023-04-29T05:22:08;12.12;99.36
71436;SHT31;59251;51.326;12.370;2023-04-29T05:24:33;12.14;99.18
71436;SHT31;59251;51.326;12.370;2023-04-29T05:26:59;12.17;99.09
71436;SHT31;59251;51.326;12.370;2023-04-29T05:29:24;12.17;99.12
71436;SHT31;59251;51.326;12.370;2023-04-29T05:31:51;12.20;99.47
71436;SHT31;59251;51.326;12.370;2023-04-29T05:34:16;12.26;99.35
71436;SHT31;59251;51.326;12.370;2023-04-29T05:36:42;12.22;99.57
71436;SHT31;59251;51.326;12.370;2023-04-29T05:39:07;12.22;99.63
71436;SHT31;59251;51.326;12.370;2023-04-29T05:41:32;12.40;99.13
71436;SHT31;59251;51.326;12.370;2023-04-29T05:43:58;12.34;99.39
71436;SHT31;59251;51.326;12.370;2023-04-29T05:46:23;12.50;99.15
71436;SHT31;59251;51.326;12.370;2023-04-29T05:48:48;12.48;99.03
71436;SHT31;59251;51.326;12.370;2023-04-29T05:51:14;12.55;98.88
71436;SHT31;59251;51.326;12.370;2023-04-29T05:53:40;12.61;98.91
71436;SHT31;59251;51.326;12.370;2023-04-29T05:56:05;12.69;98.82
71436;SHT31;59251;51.326;12.370;2023-04-29T05:58:35;12.91;98.64
71436;SHT31;59251;51.326;12.370;2023-04-29T06:01:01;13.51;97.06
71436;SHT31;59251;51.326;12.370;2023-04-29T06:03:27;13.82;96.22
71436;SHT31;59251;51.326;12.370;2023-04-29T06:05:52;13.81;95.28
71436;SHT31;59251;51.326;12.370;2023-04-29T06:08:18;13.61;96.07
71436;SHT31;59251;51.326;12.370;2023-04-29T06:10:44;13.54;96.18
71436;SHT31;59251;51.326;12.370;2023-04-29T06:13:10;13.54;96.17
71436;SHT31;59251;51.326;12.370;2023-04-29T06:15:35;13.44;95.92
71436;SHT31;59251;51.326;12.370;2023-04-29T06:18:01;13.40;96.13
71436;SHT31;59251;51.326;12.370;2023-04-29T06:20:26;13.33;96.62
71436;SHT31;59251;51.326;12.370;2023-04-29T06:22:52;13.20;96.43
71436;SHT31;59251;51.326;12.370;2023-04-29T06:25:17;13.26;96.63
71436;SHT31;59251;51.326;12.370;2023-04-29T06:27:42;13.20;96.99
71436;SHT31;59251;51.326;12.370;2023-04-29T06:30:08;12.95;97.58
71436;SHT31;59251;51.326;12.370;2023-04-29T06:32:33;12.99;97.16
71436;SHT31;59251;51.326;12.370;2023-04-29T06:34:59;13.01;97.02
71436;SHT31;59251;51.326;12.370;2023-04-29T06:37:25;12.91;97.44
71436;SHT31;59251;51.326;12.370;2023-04-29T06:39:51;13.05;96.92
71436;SHT31;59251;51.326;12.370;2023-04-29T06:42:16;12.95;97.36
71436;SHT31;59251;51.326;12.370;2023-04-29T06:44:42;12.95;97.59
71436;SHT31;59251;51.326;12.370;2023-04-29T06:47:08;13.06;96.07
71436;SHT31;59251;51.326;12.370;2023-04-29T06:49:33;13.01;95.99
71436;SHT31;59251;51.326;12.370;2023-04-29T06:51:59;13.08;95.67
71436;SHT31;59251;51.326;12.370;2023-04-29T06:54:26;13.08;95.53
71436;SHT31;59251;51.326;12.370;2023-04-29T06:56:52;13.18;94.79
71436;SHT31;59251;51.326;12.370;2023-04-29T06:59:18;13.16;93.89
71436;SHT31;59251;51.326;12.370;2023-04-29T07:01:43;13.03;93.42
71436;SHT31;59251;51.326;12.370;2023-04-29T07:04:09;13.05;93.92
71436;SHT31;59251;51.326;12.370;2023-04-29T07:06:34;13.09;94.03
71436;SHT31;59251;51.326;12.370;2023-04-29T07:08:59;13.16;93.57
71436;SHT31;59251;51.326;12.370;2023-04-29T07:11:26;13.02;93.69
71436;SHT31;59251;51.326;12.370;2023-04-29T07:13:51;13.03;93.56
71436;SHT31;59251;51.326;12.370;2023-04-29T07:16:17;13.06;93.68
71436;SHT31;59251;51.326;12.370;2023-04-29T07:18:46;12.85;93.62
71436;SHT31;59251;51.326;12.370;2023-04-29T07:21:11;12.95;93.40
71436;SHT31;59251;51.326;12.370;2023-04-29T07:23:37;12.98;93.18
71436;SHT31;59251;51.326;12.370;2023-04-29T07:26:10;12.75;93.36
71436;SHT31;59251;51.326;12.370;2023-04-29T07:28:35;12.89;92.83
71436;SHT31;59251;51.326;12.370;2023-04-29T07:31:00;12.91;91.96
71436;SHT31;59251;51.326;12.370;2023-04-29T07:33:26;12.93;92.03
71436;SHT31;59251;51.326;12.370;2023-04-29T07:35:51;12.92;92.09
71436;SHT31;59251;51.326;12.370;2023-04-29T07:38:17;12.81;92.10
71436;SHT31;59251;51.326;12.370;2023-04-29T07:40:42;12.61;92.48
71436;SHT31;59251;51.326;12.370;2023-04-29T07:43:07;12.65;92.80
71436;SHT31;59251;51.326;12.370;2023-04-29T07:45:33;12.58;93.38
71436;SHT31;59251;51.326;12.370;2023-04-29T07:47:59;12.71;93.63
71436;SHT31;59251;51.326;12.370;2023-04-29T07:50:24;12.72;92.99
71436;SHT31;59251;51.326;12.370;2023-04-29T07:52:50;12.71;93.42
71436;SHT31;59251;51.326;12.370;2023-04-29T07:55:15;12.55;93.46
71436;SHT31;59251;51.326;12.370;2023-04-29T07:57:40;12.68;92.81
71436;SHT31;59251;51.326;12.370;2023-04-29T08:00:06;12.75;92.49
71436;SHT31;59251;51.326;12.370;2023-04-29T08:02:32;12.72;92.02
71436;SHT31;59251;51.326;12.370;2023-04-29T08:04:57;12.77;92.39
71436;SHT31;59251;51.326;12.370;2023-04-29T08:07:22;12.77;92.84
71436;SHT31;59251;51.326;12.370;2023-04-29T08:09:48;12.98;91.60
71436;SHT31;59251;51.326;12.370;2023-04-29T08:12:13;12.96;91.48
71436;SHT31;59251;51.326;12.370;2023-04-29T08:14:38;12.99;90.85
71436;SHT31;59251;51.326;12.370;2023-04-29T08:17:04;13.05;90.71
71436;SHT31;59251;51.326;12.370;2023-04-29T08:19:29;12.98;91.02
71436;SHT31;59251;51.326;12.370;2023-04-29T08:21:55;12.87;91.33
71436;SHT31;59251;51.326;12.370;2023-04-29T08:24:21;12.71;91.78
71436;SHT31;59251;51.326;12.370;2023-04-29T08:26:46;12.80;91.08
71436;SHT31;59251;51.326;12.370;2023-04-29T08:29:12;12.81;90.92
71436;SHT31;59251;51.326;12.370;2023-04-29T08:31:37;12.85;90.54
71436;SHT31;59251;51.326;12.370;2023-04-29T08:34:03;12.96;90.27
71436;SHT31;59251;51.326;12.370;2023-04-29T08:36:28;13.16;89.51
71436;SHT31;59251;51.326;12.370;2023-04-29T08:38:54;13.24;88.17
71436;SHT31;59251;51.326;12.370;2023-04-29T08:41:20;13.32;87.90
71436;SHT31;59251;51.326;12.370;2023-04-29T08:43:45;13.32;86.90
71436;SHT31;59251;51.326;12.370;2023-04-29T08:46:11;13.56;86.37
71436;SHT31;59251;51.326;12.370;2023-04-29T08:48:37;13.73;85.91
71436;SHT31;59251;51.326;12.370;2023-04-29T08:51:05;13.70;84.97
71436;SHT31;59251;51.326;12.370;2023-04-29T08:53:30;13.64;86.16
71436;SHT31;59251;51.326;12.370;2023-04-29T08:56:02;13.61;85.41
71436;SHT31;59251;51.326;12.370;2023-04-29T08:58:28;13.26;86.68
71436;SHT31;59251;51.326;12.370;2023-04-29T09:00:54;13.23;86.16
71436;SHT31;59251;51.326;12.370;2023-04-29T09:03:31;13.20;86.56
71436;SHT31;59251;51.326;12.370;2023-04-29T09:05:59;13.08;87.08
71436;SHT31;59251;51.326;12.370;2023-04-29T09:08:26;13.02;87.48
71436;SHT31;59251;51.326;12.370;2023-04-29T09:10:52;12.98;88.15
71436;SHT31;59251;51.326;12.370;2023-04-29T09:13:31;12.88;89.08
71436;SHT31;59251;51.326;12.370;2023-04-29T09:15:57;12.89;88.99
71436;SHT31;59251;51.326;12.370;2023-04-29T09:18:41;12.92;88.19
71436;SHT31;59251;51.326;12.370;2023-04-29T09:21:22;12.65;88.66
71436;SHT31;59251;51.326;12.370;2023-04-29T09:23:53;12.77;88.61
71436;SHT31;59251;51.326;12.370;2023-04-29T09:26:18;12.58;88.89
71436;SHT31;59251;51.326;12.370;2023-04-29T09:28:44;12.69;88.39
71436;SHT31;59251;51.326;12.370;2023-04-29T09:31:12;12.74;88.15
71436;SHT31;59251;51.326;12.370;2023-04-29T09:33:55;12.71;88.21
71436;SHT31;59251;51.326;12.370;2023-04-29T09:39:06;12.24;89.63
71436;SHT31;59251;51.326;12.370;2023-04-29T09:44:08;12.53;88.69
71436;SHT31;59251;51.326;12.370;2023-04-29T09:46:34;12.44;89.11
71436;SHT31;59251;51.326;12.370;2023-04-29T09:49:04;12.77;88.37
71436;SHT31;59251;51.326;12.370;2023-04-29T09:52:01;13.02;86.79
71436;SHT31;59251;51.326;12.370;2023-04-29T09:54:28;12.98;86.57
71436;SHT31;59251;51.326;12.370;2023-04-29T09:56:55;13.30;85.88
71436;SHT31;59251;51.326;12.370;2023-04-29T09:59:21;13.12;86.19
71436;SHT31;59251;51.326;12.370;2023-04-29T10:01:55;13.29;85.28
71436;SHT31;59251;51.326;12.370;2023-04-29T10:04:23;13.53;84.43
71436;SHT31;59251;51.326;12.370;2023-04-29T10:06:49;13.42;84.96
71436;SHT31;59251;51.326;12.370;2023-04-29T10:09:17;13.22;85.48
71436;SHT31;59251;51.326;12.370;2023-04-29T10:11:47;13.15;85.18
71436;SHT31;59251;51.326;12.370;2023-04-29T10:14:15;12.85;85.95
71436;SHT31;59251;51.326;12.370;2023-04-29T10:16:53;12.71;86.59
71436;SHT31;59251;51.326;12.370;2023-04-29T10:19:24;12.61;87.18
71436;SHT31;59251;51.326;12.370;2023-04-29T10:21:52;12.36;88.38
71436;SHT31;59251;51.326;12.370;2023-04-29T10:24:20;12.44;88.56
71436;SHT31;59251;51.326;12.370;2023-04-29T10:26:50;12.41;88.27
71436;SHT31;59251;51.326;12.370;2023-04-29T10:29:16;12.45;87.99
71436;SHT31;59251;51.326;12.370;2023-04-29T10:31:42;12.75;86.23
71436;SHT31;59251;51.326;12.370;2023-04-29T10:34:09;12.40;87.02
71436;SHT31;59251;51.326;12.370;2023-04-29T10:36:36;12.64;86.13
71436;SHT31;59251;51.326;12.370;2023-04-29T10:39:03;12.67;86.56
71436;SHT31;59251;51.326;12.370;2023-04-29T10:41:50;12.68;86.27
71436;SHT31;59251;51.326;12.370;2023-04-29T10:44:16;12.47;87.02
71436;SHT31;59251;51.326;12.370;2023-04-29T10:46:41;12.43;87.33
71436;SHT31;59251;51.326;12.370;2023-04-29T10:49:07;12.20;88.11
71436;SHT31;59251;51.326;12.370;2023-04-29T10:51:34;12.14;88.41
71436;SHT31;59251;51.326;12.370;2023-04-29T10:54:16;12.00;89.11
71436;SHT31;59251;51.326;12.370;2023-04-29T10:56:42;11.78;89.90
71436;SHT31;59251;51.326;12.370;2023-04-29T10:59:09;11.79;89.77
71436;SHT31;59251;51.326;12.370;2023-04-29T11:02:02;11.71;89.60
71436;SHT31;59251;51.326;12.370;2023-04-29T11:04:30;11.66;89.56
71436;SHT31;59251;51.326;12.370;2023-04-29T11:06:56;11.69;89.30
71436;SHT31;59251;51.326;12.370;2023-04-29T11:17:04;12.38;87.38
71436;SHT31;59251;51.326;12.370;2023-04-29T11:19:33;12.30;87.49
71436;SHT31;59251;51.326;12.370;2023-04-29T11:22:07;12.14;87.62
71436;SHT31;59251;51.326;12.370;2023-04-29T11:24:34;12.07;87.69
71436;SHT31;59251;51.326;12.370;2023-04-29T11:27:01;11.99;88.27
71436;SHT31;59251;51.326;12.370;2023-04-29T11:29:30;11.95;88.73
71436;SHT31;59251;51.326;12.370;2023-04-29T11:32:00;11.99;88.52
71436;SHT31;59251;51.326;12.370;2023-04-29T11:34:26;12.05;88.63
71436;SHT31;59251;51.326;12.370;2023-04-29T11:36:52;11.96;88.77
71436;SHT31;59251;51.326;12.370;2023-04-29T11:39:17;11.90;88.34
71436;SHT31;59251;51.326;12.370;2023-04-29T11:41:43;11.87;88.76
71436;SHT31;59251;51.326;12.370;2023-04-29T11:44:10;11.90;88.43
71436;SHT31;59251;51.326;12.370;2023-04-29T11:46:36;11.96;88.01
71436;SHT31;59251;51.326;12.370;2023-04-29T11:49:01;11.90;87.82
71436;SHT31;59251;51.326;12.370;2023-04-29T11:51:27;11.90;87.66
71436;SHT31;59251;51.326;12.370;2023-04-29T11:53:53;11.81;87.63
71436;SHT31;59251;51.326;12.370;2023-04-29T11:56:21;11.75;87.51
71436;SHT31;59251;51.326;12.370;2023-04-29T11:58:53;11.66;87.84
71436;SHT31;59251;51.326;12.370;2023-04-29T12:01:20;11.74;87.47
71436;SHT31;59251;51.326;12.370;2023-04-29T12:03:48;11.87;87.32
71436;SHT31;59251;51.326;12.370;2023-04-29T12:06:14;11.99;87.12
71436;SHT31;59251;51.326;12.370;2023-04-29T12:08:39;11.97;86.83
71436;SHT31;59251;51.326;12.370;2023-04-29T12:11:06;12.05;86.75
71436;SHT31;59251;51.326;12.370;2023-04-29T12:13:32;12.07;86.57
71436;SHT31;59251;51.326;12.370;2023-04-29T12:16:00;12.27;86.07
71436;SHT31;59251;51.326;12.370;2023-04-29T12:18:25;12.65;85.34
71436;SHT31;59251;51.326;12.370;2023-04-29T12:20:52;12.72;84.19
71436;SHT31;59251;51.326;12.370;2023-04-29T12:23:23;12.98;83.92
71436;SHT31;59251;51.326;12.370;2023-04-29T12:25:53;13.20;83.04
71436;SHT31;59251;51.326;12.370;2023-04-29T12:28:20;13.22;82.33
71436;SHT31;59251;51.326;12.370;2023-04-29T12:30:46;13.08;83.30
71436;SHT31;59251;51.326;12.370;2023-04-29T12:35:47;13.39;82.67
71436;SHT31;59251;51.326;12.370;2023-04-29T12:38:31;13.24;81.89
71436;SHT31;59251;51.326;12.370;2023-04-29T12:40:59;13.18;82.23
71436;SHT31;59251;51.326;12.370;2023-04-29T12:43:29;13.39;82.23
71436;SHT31;59251;51.326;12.370;2023-04-29T12:46:05;13.33;82.22
71436;SHT31;59251;51.326;12.370;2023-04-29T12:48:35;13.51;81.92
71436;SHT31;59251;51.326;12.370;2023-04-29T12:51:11;13.95;80.20
71436;SHT31;59251;51.326;12.370;2023-04-29T12:53:36;14.33;79.00
71436;SHT31;59251;51.326;12.370;2023-04-29T12:56:02;14.39;78.66
71436;SHT31;59251;51.326;12.370;2023-04-29T12:58:28;14.43;78.14
71436;SHT31;59251;51.326;12.370;2023-04-29T13:00:54;14.45;77.54
71436;SHT31;59251;51.326;12.370;2023-04-29T13:03:20;14.50;77.15
71436;SHT31;59251;51.326;12.370;2023-04-29T13:05:45;14.47;76.61
71436;SHT31;59251;51.326;12.370;2023-04-29T13:08:12;14.59;75.80
71436;SHT31;59251;51.326;12.370;2023-04-29T13:10:39;14.47;76.48
71436;SHT31;59251;51.326;12.370;2023-04-29T13:13:04;14.46;77.26
71436;SHT31;59251;51.326;12.370;2023-04-29T13:15:29;14.25;77.99
71436;SHT31;59251;51.326;12.370;2023-04-29T13:17:57;13.82;78.88
71436;SHT31;59251;51.326;12.370;2023-04-29T13:20:22;13.92;79.44
71436;SHT31;59251;51.326;12.370;2023-04-29T13:22:48;14.09;78.17
71436;SHT31;59251;51.326;12.370;2023-04-29T13:25:13;14.12;78.25
71436;SHT31;59251;51.326;12.370;2023-04-29T13:27:40;14.21;78.15
71436;SHT31;59251;51.326;12.370;2023-04-29T13:30:06;14.25;77.82
71436;SHT31;59251;51.326;12.370;2023-04-29T13:32:31;14.16;77.69
71436;SHT31;59251;51.326;12.370;2023-04-29T13:34:57;13.95;77.88
71436;SHT31;59251;51.326;12.370;2023-04-29T13:37:22;13.91;78.57
71436;SHT31;59251;51.326;12.370;2023-04-29T13:39:47;13.92;78.90
71436;SHT31;59251;51.326;12.370;2023-04-29T13:42:13;13.81;79.16
71436;SHT31;59251;51.326;12.370;2023-04-29T13:44:38;13.68;79.57
71436;SHT31;59251;51.326;12.370;2023-04-29T13:47:11;13.60;80.08
71436;SHT31;59251;51.326;12.370;2023-04-29T13:49:40;13.40;81.09
71436;SHT31;59251;51.326;12.370;2023-04-29T13:52:06;13.33;80.99
71436;SHT31;59251;51.326;12.370;2023-04-29T13:54:32;13.22;81.63
71436;SHT31;59251;51.326;12.370;2023-04-29T13:56:58;13.24;81.84
71436;SHT31;59251;51.326;12.370;2023-04-29T13:59:24;13.44;81.60
71436;SHT31;59251;51.326;12.370;2023-04-29T14:01:49;13.61;80.07
71436;SHT31;59251;51.326;12.370;2023-04-29T14:04:15;13.68;80.30
71436;SHT31;59251;51.326;12.370;2023-04-29T14:06:42;13.58;80.32
71436;SHT31;59251;51.326;12.370;2023-04-29T14:09:07;13.61;80.50
71436;SHT31;59251;51.326;12.370;2023-04-29T14:11:33;13.71;79.91
71436;SHT31;59251;51.326;12.370;2023-04-29T14:14:01;13.89;79.39
71436;SHT31;59251;51.326;12.370;2023-04-29T14:16:27;14.08;79.09
71436;SHT31;59251;51.326;12.370;2023-04-29T14:18:52;14.24;78.62
71436;SHT31;59251;51.326;12.370;2023-04-29T14:21:18;14.22;78.74
71436;SHT31;59251;51.326;12.370;2023-04-29T14:23:46;14.18;78.57
71436;SHT31;59251;51.326;12.370;2023-04-29T14:26:12;14.32;77.85
71436;SHT31;59251;51.326;12.370;2023-04-29T14:28:37;14.29;78.06
71436;SHT31;59251;51.326;12.370;2023-04-29T14:31:02;14.25;78.59
71436;SHT31;59251;51.326;12.370;2023-04-29T14:33:28;14.53;77.84
71436;SHT31;59251;51.326;12.370;2023-04-29T14:35:53;14.35;77.87
71436;SHT31;59251;51.326;12.370;2023-04-29T14:38:18;14.45;77.65
71436;SHT31;59251;51.326;12.370;2023-04-29T14:40:44;14.52;77.93
71436;SHT31;59251;51.326;12.370;2023-04-29T14:43:09;14.50;77.66
71436;SHT31;59251;51.326;12.370;2023-04-29T14:45:34;14.32;78.03
71436;SHT31;59251;51.326;12.370;2023-04-29T14:48:01;14.45;77.57
71436;SHT31;59251;51.326;12.370;2023-04-29T14:50:27;14.37;78.23
71436;SHT31;59251;51.326;12.370;2023-04-29T14:52:52;14.28;78.31
71436;SHT31;59251;51.326;12.370;2023-04-29T14:55:18;14.32;78.19
71436;SHT31;59251;51.326;12.370;2023-04-29T14:57:43;14.33;78.28
71436;SHT31;59251;51.326;12.370;2023-04-29T15:00:09;14.09;78.90
71436;SHT31;59251;51.326;12.370;2023-04-29T15:02:36;14.15;78.27
71436;SHT31;59251;51.326;12.370;2023-04-29T15:05:01;14.16;78.58
71436;SHT31;59251;51.326;12.370;2023-04-29T15:07:28;14.21;78.65
71436;SHT31;59251;51.326;12.370;2023-04-29T15:09:53;14.16;78.61
71436;SHT31;59251;51.326;12.370;2023-04-29T15:12:18;14.09;78.14
71436;SHT31;59251;51.326;12.370;2023-04-29T15:14:45;13.95;78.70
71436;SHT31;59251;51.326;12.370;2023-04-29T15:17:11;14.02;78.33
71436;SHT31;59251;51.326;12.370;2023-04-29T15:19:37;14.09;78.26
71436;SHT31;59251;51.326;12.370;2023-04-29T15:22:02;14.00;78.21
71436;SHT31;59251;51.326;12.370;2023-04-29T15:24:28;13.78;77.98
71436;SHT31;59251;51.326;12.370;2023-04-29T15:26:53;13.98;77.60
71436;SHT31;59251;51.326;12.370;2023-04-29T15:29:19;14.00;77.62
71436;SHT31;59251;51.326;12.370;2023-04-29T15:31:44;14.08;77.60
71436;SHT31;59251;51.326;12.370;2023-04-29T15:34:10;14.08;77.63
71436;SHT31;59251;51.326;12.370;2023-04-29T15:36:35;14.28;77.49
71436;SHT31;59251;51.326;12.370;2023-04-29T15:39:00;14.16;76.88
71436;SHT31;59251;51.326;12.370;2023-04-29T15:41:26;14.04;77.10